Marion Dufresne — FNIN — position and weather

sailwx.info

Track history (hours):
 
Tides and Currents Weather Stations Pressure Air Temp Water Temp Dewpoint Dewpoint Depression Visibility Wind Speed Wind Dir Waves Ship Positions

Oceanographic research ship Marion Dufresne (France)

Detailed information on ship capabilities available from University of Delaware's Ocean Information Center and ARCUS's ALIAS (Arctic Logistics Information and Support) project.

Last reported at 2015-Aug-30 14:29 UTC. Time now 2015-Sep-04 03:54 UTC.
Position S 20°13' E 057°10'.

Length 120 m; beam 21 m.

Type: Ship (hazmat cat A). MMSI: 227235000.

Date/timePositionNaut miles runAvg speedWind from/ knotsBaromVisibWave heightAir tempDewpointWater temp
2015-Aug-30 14:29S 20°13' E 057°10'1 0.9
2015-Aug-30 13:33S 20°13' E 057°11'6 5.8
2015-Aug-30 12:33S 20°11' E 057°16'1212.0
2015-Aug-30 11:33S 20°09' E 057°29'1 1.1
2015-Aug-30 10:31S 20°09' E 057°30'0 0.0
2015-Aug-30 09:33S 20°09' E 057°30'0 0.0
2015-Aug-30 08:33S 20°09' E 057°30'0 0.0
2015-Aug-30 07:32S 20°09' E 057°30'0 0.0
2015-Aug-30 06:32S 20°09' E 057°30'0 0.0
2015-Aug-30 05:32S 20°09' E 057°30'0 0.0
2015-Aug-30 04:31S 20°09' E 057°30'0 0.0
2015-Aug-30 03:28S 20°09' E 057°30'0 0.0
2015-Aug-30 02:33S 20°09' E 057°30'0 0.0
2015-Aug-30 01:33S 20°09' E 057°30'0 0.0
2015-Aug-30 00:32S 20°09' E 057°30'0 0.0
2015-Aug-29 23:32S 20°09' E 057°30'0 0.0
2015-Aug-29 22:31S 20°09' E 057°30'0 0.0
2015-Aug-29 21:31S 20°09' E 057°30'0 0.0
2015-Aug-29 20:33S 20°09' E 057°30'1 1.5
2015-Aug-29 19:33S 20°08' E 057°28'0 0.5
2015-Aug-29 18:33S 20°08' E 057°29'0 0.0
2015-Aug-29 17:32S 20°08' E 057°29'0 0.0
2015-Aug-29 16:32S 20°08' E 057°29'0 0.0
2015-Aug-29 15:32S 20°08' E 057°29'0 0.0
2015-Aug-29 14:31S 20°08' E 057°29'0 0.0
2015-Aug-29 13:31S 20°08' E 057°29'0 0.0
2015-Aug-29 12:33S 20°08' E 057°29'0 0.0
2015-Aug-29 11:33S 20°08' E 057°29'0 0.0
2015-Aug-29 10:32S 20°08' E 057°29'0 0.0
2015-Aug-29 09:32S 20°08' E 057°29'0 0.0
2015-Aug-29 08:32S 20°08' E 057°29'0 0.0
2015-Aug-29 07:31S 20°08' E 057°29'0 0.0
2015-Aug-29 06:31S 20°08' E 057°29'0 0.0
2015-Aug-29 05:33S 20°08' E 057°29'0 0.0
2015-Aug-29 04:33S 20°08' E 057°29'0 0.0
2015-Aug-29 03:32S 20°08' E 057°29'0 0.1
2015-Aug-29 02:33S 20°08' E 057°29'4 3.8
2015-Aug-29 01:33S 20°08' E 057°25'9 8.5
2015-Aug-29 00:33S 20°11' E 057°16'9 8.2
2015-Aug-28 23:24S 20°14' E 057°06'  
Track history (hours):
 
Tides and Currents Weather Stations Pressure Air Temp Water Temp Dewpoint Dewpoint Depression Visibility Wind Speed Wind Dir Waves Ship Positions

Oceanographic research ship Marion Dufresne (France)

Detailed information on ship capabilities available from University of Delaware's Ocean Information Center and ARCUS's ALIAS (Arctic Logistics Information and Support) project.

Last reported at 2015-Aug-30 14:29 UTC. Time now 2015-Sep-04 03:54 UTC.
Position S 20°13' E 057°10'.

Length 120 m; beam 21 m.

Type: Ship (hazmat cat A). MMSI: 227235000.

Date/timePositionNaut miles runAvg speedWind from/ knotsBaromVisibWave heightAir tempDewpointWater temp
2015-Aug-30 14:29S 20°13' E 057°10'1 0.9
2015-Aug-30 13:33S 20°13' E 057°11'6 5.8
2015-Aug-30 12:33S 20°11' E 057°16'1212.0
2015-Aug-30 11:33S 20°09' E 057°29'1 1.1
2015-Aug-30 10:31S 20°09' E 057°30'0 0.0
2015-Aug-30 09:33S 20°09' E 057°30'0 0.0
2015-Aug-30 08:33S 20°09' E 057°30'0 0.0
2015-Aug-30 07:32S 20°09' E 057°30'0 0.0
2015-Aug-30 06:32S 20°09' E 057°30'0 0.0
2015-Aug-30 05:32S 20°09' E 057°30'0 0.0
2015-Aug-30 04:31S 20°09' E 057°30'0 0.0
2015-Aug-30 03:28S 20°09' E 057°30'0 0.0
2015-Aug-30 02:33S 20°09' E 057°30'0 0.0
2015-Aug-30 01:33S 20°09' E 057°30'0 0.0
2015-Aug-30 00:32S 20°09' E 057°30'0 0.0
2015-Aug-29 23:32S 20°09' E 057°30'0 0.0
2015-Aug-29 22:31S 20°09' E 057°30'0 0.0
2015-Aug-29 21:31S 20°09' E 057°30'0 0.0
2015-Aug-29 20:33S 20°09' E 057°30'1 1.5
2015-Aug-29 19:33S 20°08' E 057°28'0 0.5
2015-Aug-29 18:33S 20°08' E 057°29'0 0.0
2015-Aug-29 17:32S 20°08' E 057°29'0 0.0
2015-Aug-29 16:32S 20°08' E 057°29'0 0.0
2015-Aug-29 15:32S 20°08' E 057°29'0 0.0
2015-Aug-29 14:31S 20°08' E 057°29'0 0.0
2015-Aug-29 13:31S 20°08' E 057°29'0 0.0
2015-Aug-29 12:33S 20°08' E 057°29'0 0.0
2015-Aug-29 11:33S 20°08' E 057°29'0 0.0
2015-Aug-29 10:32S 20°08' E 057°29'0 0.0
2015-Aug-29 09:32S 20°08' E 057°29'0 0.0
2015-Aug-29 08:32S 20°08' E 057°29'0 0.0
2015-Aug-29 07:31S 20°08' E 057°29'0 0.0
2015-Aug-29 06:31S 20°08' E 057°29'0 0.0
2015-Aug-29 05:33S 20°08' E 057°29'0 0.0
2015-Aug-29 04:33S 20°08' E 057°29'0 0.0
2015-Aug-29 03:32S 20°08' E 057°29'0 0.1
2015-Aug-29 02:33S 20°08' E 057°29'4 3.8
2015-Aug-29 01:33S 20°08' E 057°25'9 8.5
2015-Aug-29 00:33S 20°11' E 057°16'9 8.2
2015-Aug-28 23:24S 20°14' E 057°06'  

Dump ship's entire track history